Time;durP1;ratioP1;P1;durP2;ratioP2;P2;SDS_P1;SDS_P2;PMS_P1;PMS_P2;Temp;Humidity;BMP_temperature;BMP_pressure;BME280_temperature;BME280_humidity;BME280_pressure;Samples;Min_cycle;Max_cycle;Signal;HPM_P1;HPM_P2
2023/10/14 00:00:26;;;;;;;3.13;0.95;;;;;;;15.13;100.00;99987.34;5022935;28;20030;-68
2023/10/14 00:02:52;;;;;;;3.92;0.50;;;;;;;15.02;100.00;99977.81;5023681;28;20168;-68
2023/10/14 00:05:19;;;;;;;3.10;0.73;;;;;;;14.94;100.00;99980.41;5010850;28;20589;-68
2023/10/14 00:07:45;;;;;;;1.70;0.60;;;;;;;14.85;100.00;99994.31;5010025;28;20489;-68
2023/10/14 00:10:12;;;;;;;2.00;0.68;;;;;;;14.79;100.00;100012.56;5018252;28;20021;-69
2023/10/14 00:12:39;;;;;;;2.15;0.40;;;;;;;14.71;100.00;100047.31;5012654;28;20030;-68
2023/10/14 00:15:06;;;;;;;0.63;0.32;;;;;;;14.63;100.00;100015.09;5010302;28;20450;-68
2023/10/14 00:17:36;;;;;;;2.10;0.40;;;;;;;14.52;100.00;100009.88;5023374;28;20072;-68
2023/10/14 00:20:03;;;;;;;1.23;0.30;;;;;;;14.50;100.00;100011.59;5010824;28;20064;-68
2023/10/14 00:22:29;;;;;;;1.42;0.65;;;;;;;14.48;100.00;100002.94;5009933;28;20072;-67
2023/10/14 00:24:58;;;;;;;1.42;0.65;;;;;;;14.44;100.00;100003.78;5010349;28;20064;-68
2023/10/14 00:27:24;;;;;;;1.65;0.38;;;;;;;14.44;100.00;100022.91;5010323;28;20030;-68
2023/10/14 00:29:50;;;;;;;3.17;0.50;;;;;;;14.42;100.00;100022.03;5009740;28;20163;-68
2023/10/14 00:32:16;;;;;;;0.68;0.40;;;;;;;14.39;100.00;99998.56;5014245;28;20072;-67
2023/10/14 00:34:42;;;;;;;0.95;0.40;;;;;;;14.36;100.00;100016.78;5009054;28;20371;-68
2023/10/14 00:37:08;;;;;;;3.88;0.68;;;;;;;14.34;100.00;100027.19;5007054;28;20026;-68
2023/10/14 00:39:33;;;;;;;1.02;0.40;;;;;;;14.31;100.00;100053.25;5009606;28;20079;-68
2023/10/14 00:41:59;;;;;;;1.33;0.45;;;;;;;14.33;100.00;100061.94;5009430;28;20054;-68
2023/10/14 00:44:25;;;;;;;2.88;0.40;;;;;;;14.34;100.00;100071.50;5009261;28;20105;-67
2023/10/14 00:46:53;;;;;;;0.90;0.30;;;;;;;14.32;100.00;100069.78;5009054;28;20046;-68
2023/10/14 00:49:28;;;;;;;0.57;0.30;;;;;;;14.33;100.00;100063.69;5009219;28;20026;-68
2023/10/14 00:51:59;;;;;;;1.80;0.50;;;;;;;14.31;100.00;100078.44;5009749;28;20022;-69
2023/10/14 00:54:41;;;;;;;0.28;0.28;;;;;;;14.28;100.00;100079.31;5009064;28;20042;-68
2023/10/14 00:57:20;;;;;;;0.50;0.50;;;;;;;14.23;100.00;100075.81;5009733;28;20029;-68
2023/10/14 00:59:50;;;;;;;2.10;0.65;;;;;;;14.20;100.00;100071.44;4996634;28;20734;-68
2023/10/14 01:02:26;;;;;;;1.80;0.45;;;;;;;14.15;100.00;100068.81;5009109;28;20026;-68
2023/10/14 01:04:53;;;;;;;0.93;0.60;;;;;;;14.13;100.00;100080.09;5009625;28;20025;-68
2023/10/14 01:07:20;;;;;;;1.77;0.70;;;;;;;14.10;100.00;100086.19;5009182;28;20022;-68
2023/10/14 01:12:16;;;;;;;1.67;1.05;;;;;;;14.05;100.00;100093.94;5008886;28;20062;-67
2023/10/14 01:14:44;;;;;;;2.30;1.40;;;;;;;14.06;100.00;100102.63;5008978;28;20482;-68
2023/10/14 01:17:10;;;;;;;3.42;1.35;;;;;;;14.07;100.00;100117.38;5022725;28;20025;-67
2023/10/14 01:19:37;;;;;;;2.97;2.10;;;;;;;14.07;100.00;100122.59;5009156;28;20367;-68
2023/10/14 01:22:03;;;;;;;2.33;0.80;;;;;;;13.99;100.00;100129.50;5008576;28;20300;-68
2023/10/14 01:24:34;;;;;;;3.90;0.77;;;;;;;13.91;100.00;100135.53;5009202;28;20137;-68
2023/10/14 01:27:05;;;;;;;3.50;0.70;;;;;;;13.85;100.00;100140.69;5008307;28;20057;-67
2023/10/14 01:29:31;;;;;;;2.25;0.60;;;;;;;13.77;100.00;100150.19;5008869;28;20112;-68
2023/10/14 01:32:24;;;;;;;4.15;0.98;;;;;;;13.73;100.00;100158.81;5008521;28;20100;-68
2023/10/14 01:34:56;;;;;;;9.45;1.00;;;;;;;13.68;100.00;100172.69;5007971;28;20034;-67
2023/10/14 01:37:26;;;;;;;4.65;1.00;;;;;;;13.61;100.00;100170.91;5008760;28;20482;-68
2023/10/14 01:39:56;;;;;;;6.18;1.05;;;;;;;13.55;100.00;100182.13;5007880;28;20030;-68
2023/10/14 01:42:22;;;;;;;7.35;0.98;;;;;;;13.51;100.00;100185.50;5008061;28;20097;-67
2023/10/14 01:44:53;;;;;;;3.55;0.73;;;;;;;13.49;100.00;100192.41;5008202;28;20490;-68
2023/10/14 01:47:19;;;;;;;4.20;0.97;;;;;;;13.42;100.00;100201.91;5007786;28;20092;-68
2023/10/14 01:49:44;;;;;;;4.13;0.80;;;;;;;13.39;100.00;100207.09;5008397;28;20028;-68
2023/10/14 01:52:14;;;;;;;4.25;0.90;;;;;;;13.37;100.00;100206.19;5008790;28;20031;-67
2023/10/14 01:54:39;;;;;;;3.77;1.10;;;;;;;13.36;100.00;100225.28;5008500;28;20079;-68
2023/10/14 01:57:08;;;;;;;5.85;1.27;;;;;;;13.36;100.00;100227.88;5007584;28;20405;-67
2023/10/14 01:59:34;;;;;;;4.10;1.00;;;;;;;13.34;100.00;100240.00;5007997;28;20044;-68
2023/10/14 02:01:59;;;;;;;6.30;1.05;;;;;;;13.30;100.00;100257.31;5008193;28;20030;-68
2023/10/14 02:04:26;;;;;;;8.13;1.38;;;;;;;13.27;100.00;100259.00;5008288;28;20083;-68
2023/10/14 02:07:13;;;;;;;6.78;1.77;;;;;;;13.23;100.00;100262.41;5007021;28;20052;-67
2023/10/14 02:09:38;;;;;;;7.75;1.52;;;;;;;13.19;100.00;100283.19;5007971;28;20034;-68
2023/10/14 02:12:04;;;;;;;6.93;1.42;;;;;;;13.17;100.00;100284.91;5008041;28;20025;-68
2023/10/14 02:14:30;;;;;;;7.82;1.70;;;;;;;13.14;100.00;100294.38;5006269;28;20018;-68
2023/10/14 02:16:55;;;;;;;10.30;1.48;;;;;;;13.10;100.00;100293.47;5007826;28;20493;-68
2023/10/14 02:21:57;;;;;;;8.10;1.60;;;;;;;13.07;100.00;100303.84;5008032;28;20029;-68
2023/10/14 02:24:23;;;;;;;6.55;1.75;;;;;;;13.07;100.00;100311.66;4995353;28;20025;-68
2023/10/14 02:26:48;;;;;;;9.65;1.50;;;;;;;13.04;100.00;100314.22;5006699;28;20390;-68
2023/10/14 02:29:15;;;;;;;5.22;1.45;;;;;;;13.05;100.00;100318.56;5007405;28;20032;-67
2023/10/14 02:31:43;;;;;;;6.63;1.45;;;;;;;13.05;100.00;100331.56;5007309;28;20025;-67
2023/10/14 02:34:09;;;;;;;5.53;1.30;;;;;;;13.02;100.00;100335.00;5007221;28;20430;-68
2023/10/14 02:36:41;;;;;;;6.10;1.48;;;;;;;13.03;100.00;100348.88;5007648;28;20022;-68
2023/10/14 02:39:17;;;;;;;5.88;1.50;;;;;;;13.03;100.00;100354.06;5007616;28;20037;-67
2023/10/14 02:41:44;;;;;;;11.25;2.20;;;;;;;13.01;100.00;100360.97;5007760;28;20410;-68
2023/10/14 02:46:45;;;;;;;6.63;1.42;;;;;;;12.92;100.00;100375.59;4997256;28;20064;-68
2023/10/14 02:49:14;;;;;;;6.10;1.58;;;;;;;12.88;100.00;100368.59;5006449;28;20026;-68
2023/10/14 02:51:43;;;;;;;5.07;1.70;;;;;;;12.84;100.00;100390.22;5007554;28;20030;-67
2023/10/14 02:54:26;;;;;;;9.35;1.30;;;;;;;12.78;100.00;100400.50;5006788;28;20026;-68
2023/10/14 02:56:58;;;;;;;9.27;1.50;;;;;;;12.71;100.00;100408.22;4994609;28;20030;-68
2023/10/14 02:59:57;;;;;;;6.22;1.60;;;;;;;12.69;100.00;100411.63;5006954;28;20111;-68
2023/10/14 03:02:48;;;;;;;5.57;1.65;;;;;;;12.63;100.00;100428.00;4999605;28;20069;-68
2023/10/14 03:07:33;;;;;;;10.07;1.95;;;;;;;12.50;100.00;100437.31;5006773;28;20030;-68
2023/10/14 03:10:12;;;;;;;6.63;1.80;;;;;;;12.45;100.00;100438.94;5007221;28;20129;-68
2023/10/14 03:12:39;;;;;;;5.05;1.85;;;;;;;12.35;100.00;100453.50;5007546;28;20553;-68
2023/10/14 03:15:20;;;;;;;11.90;2.20;;;;;;;12.29;100.00;100453.38;5008834;28;20026;-68
2023/10/14 03:17:53;;;;;;;6.60;1.85;;;;;;;12.20;100.00;100460.16;5020590;28;20038;-68
2023/10/14 03:23:03;;;;;;;9.60;1.95;;;;;;;11.98;100.00;100474.41;5007872;28;20030;-68
2023/10/14 03:25:29;;;;;;;10.60;1.90;;;;;;;11.89;100.00;100485.50;5006449;28;20025;-67
2023/10/14 03:28:07;;;;;;;6.55;1.88;;;;;;;11.83;100.00;100490.53;5007472;28;20474;-67
2023/10/14 03:30:37;;;;;;;7.20;1.58;;;;;;;11.76;100.00;100495.59;5006853;28;20022;-68
2023/10/14 03:33:09;;;;;;;8.45;2.10;;;;;;;11.71;100.00;100505.00;5007412;28;20030;-68
2023/10/14 03:35:35;;;;;;;9.90;1.70;;;;;;;11.68;100.00;100512.72;5001412;28;20555;-68
2023/10/14 03:38:05;;;;;;;11.13;2.15;;;;;;;11.60;100.00;100520.34;4999973;28;20029;-66
2023/10/14 03:43:14;;;;;;;8.60;1.80;;;;;;;11.48;100.00;100533.91;5007116;28;20096;-68
2023/10/14 03:45:56;;;;;;;8.65;1.73;;;;;;;11.45;100.00;100531.25;5005588;28;20018;-68
2023/10/14 03:48:26;;;;;;;9.80;2.17;;;;;;;11.39;100.00;100541.47;5006572;28;20026;-68
2023/10/14 03:50:52;;;;;;;9.80;1.80;;;;;;;11.31;100.00;100554.28;5006905;28;20024;-68
2023/10/14 03:53:17;;;;;;;10.23;2.17;;;;;;;11.25;100.00;100552.41;5007231;28;20141;-68
2023/10/14 03:55:42;;;;;;;6.45;1.33;;;;;;;11.20;100.00;100550.53;5006383;28;20030;-67
2023/10/14 03:58:12;;;;;;;7.70;1.80;;;;;;;11.13;100.00;100559.88;5006851;28;20100;-67
2023/10/14 04:00:37;;;;;;;7.65;1.58;;;;;;;11.11;100.00;100561.56;5006422;28;20064;-68
2023/10/14 04:03:11;;;;;;;7.70;1.90;;;;;;;11.08;100.00;100566.66;5006772;28;20463;-67
2023/10/14 04:05:38;;;;;;;8.50;2.17;;;;;;;11.10;100.00;100575.38;4994363;28;20030;-68
2023/10/14 04:08:05;;;;;;;12.60;2.70;;;;;;;11.08;100.00;100577.03;5007517;28;20034;-68
2023/10/14 04:10:35;;;;;;;9.43;1.90;;;;;;;11.10;100.00;100591.78;5006823;28;20088;-67
2023/10/14 04:13:04;;;;;;;7.50;1.60;;;;;;;11.08;100.00;100583.06;5010038;28;20065;-66
2023/10/14 04:15:45;;;;;;;5.72;1.58;;;;;;;11.11;100.00;100597.84;5010545;28;20390;-67
2023/10/14 04:18:12;;;;;;;8.93;1.77;;;;;;;11.08;100.00;100597.78;5019517;28;20033;-66
2023/10/14 04:20:38;;;;;;;6.03;1.67;;;;;;;11.06;100.00;100605.53;5009929;28;20036;-67
2023/10/14 04:23:14;;;;;;;12.77;2.22;;;;;;;11.01;100.00;100613.16;5010498;28;20176;-67
2023/10/14 04:25:42;;;;;;;6.95;1.73;;;;;;;11.00;100.00;100614.00;5010434;28;20061;-67
2023/10/14 04:28:19;;;;;;;8.80;1.75;;;;;;;10.99;100.00;100630.38;4999098;28;20045;-67
2023/10/14 04:30:44;;;;;;;8.43;1.70;;;;;;;10.93;100.00;100625.94;5009078;28;20091;-67
2023/10/14 04:33:18;;;;;;;9.00;2.13;;;;;;;10.84;100.00;100635.16;5010098;28;20038;-67
2023/10/14 04:35:57;;;;;;;8.85;1.90;;;;;;;10.76;100.00;100643.59;4998525;28;20065;-67
2023/10/14 04:38:28;;;;;;;6.15;1.80;;;;;;;10.72;100.00;100638.31;5009006;28;20232;-66
2023/10/14 04:40:54;;;;;;;8.25;1.60;;;;;;;10.62;100.00;100645.81;5009385;28;20151;-67
2023/10/14 04:43:59;;;;;;;8.90;2.03;;;;;;;10.62;100.00;100645.81;5009904;28;20045;-67
2023/10/14 04:48:37;;;;;;;7.10;1.67;;;;;;;10.62;100.00;100668.25;5009742;28;20858;-67
2023/10/14 04:51:06;;;;;;;10.45;2.03;;;;;;;10.54;100.00;100668.91;5009387;28;20064;-67
2023/10/14 04:53:32;;;;;;;8.32;2.25;;;;;;;10.50;100.00;100669.66;5009342;28;20041;-67
2023/10/14 04:56:04;;;;;;;7.50;1.65;;;;;;;10.46;100.00;100672.94;5009315;28;20030;-67
2023/10/14 04:58:37;;;;;;;7.43;1.60;;;;;;;10.39;100.00;100683.97;5008846;28;20028;-67
2023/10/14 05:01:03;;;;;;;6.25;1.98;;;;;;;10.33;100.00;100684.66;5009299;28;20034;-67
2023/10/14 05:03:32;;;;;;;6.07;1.83;;;;;;;10.28;100.00;100692.28;5008797;28;20026;-67
2023/10/14 05:08:44;;;;;;;8.35;2.25;;;;;;;10.25;100.00;100710.31;5009298;28;20022;-67
2023/10/14 05:11:12;;;;;;;10.63;2.03;;;;;;;10.21;100.00;100711.06;5011255;28;20504;-66
2023/10/14 05:13:39;;;;;;;9.00;2.17;;;;;;;10.20;100.00;100711.88;5006357;28;20125;-67
2023/10/14 05:16:21;;;;;;;8.30;1.63;;;;;;;10.19;100.00;100712.72;5009109;28;20128;-66
2023/10/14 05:21:36;;;;;;;10.07;2.15;;;;;;;10.12;100.00;100726.28;4992380;28;20030;-67
2023/10/14 05:24:11;;;;;;;11.25;2.58;;;;;;;10.09;100.00;100740.88;4994418;28;20034;-67
2023/10/14 05:26:44;;;;;;;9.13;1.95;;;;;;;10.05;100.00;100741.63;4990410;28;20030;-67
2023/10/14 05:29:19;;;;;;;10.15;1.83;;;;;;;10.06;100.00;100743.38;4991190;28;20320;-66
2023/10/14 05:31:48;;;;;;;13.38;2.15;;;;;;;10.02;100.00;100751.03;4990251;28;20121;-67
2023/10/14 05:34:14;;;;;;;7.63;2.33;;;;;;;10.01;100.00;100750.13;4988122;28;20029;-67
2023/10/14 05:36:40;;;;;;;11.20;2.20;;;;;;;9.96;100.00;100749.09;4988009;28;20030;-67
2023/10/14 05:39:06;;;;;;;13.35;2.28;;;;;;;9.95;100.00;100755.09;5008290;28;20655;-66
2023/10/14 05:41:33;;;;;;;12.18;1.92;;;;;;;9.92;100.00;100749.81;5014181;28;20129;-67
2023/10/14 05:43:59;;;;;;;9.98;1.63;;;;;;;9.90;100.00;100759.22;5005930;28;20040;-66
2023/10/14 05:46:24;;;;;;;8.90;1.77;;;;;;;9.87;100.00;100769.50;5005584;28;20025;-67
2023/10/14 05:48:53;;;;;;;14.27;2.30;;;;;;;9.82;100.00;100775.38;4998601;28;20630;-66
2023/10/14 05:51:19;;;;;;;9.80;1.88;;;;;;;9.82;100.00;100780.56;5004309;28;20022;-67
2023/10/14 05:53:46;;;;;;;9.48;1.95;;;;;;;9.84;100.00;100789.25;4991314;28;20149;-67
2023/10/14 05:56:15;;;;;;;10.98;2.15;;;;;;;9.85;100.00;100785.88;4985748;28;20117;-67
2023/10/14 05:58:45;;;;;;;8.02;1.95;;;;;;;9.88;100.00;100786.78;4986357;28;20159;-67
2023/10/14 06:01:13;;;;;;;7.30;1.80;;;;;;;9.87;100.00;100796.25;4985645;28;20033;-68
2023/10/14 06:03:40;;;;;;;14.35;2.17;;;;;;;9.89;100.00;100809.25;4986291;28;20089;-67
2023/10/14 06:06:15;;;;;;;12.13;1.70;;;;;;;9.90;100.00;100816.19;4987546;28;20034;-66
2023/10/14 06:08:46;;;;;;;11.85;2.50;;;;;;;9.89;100.00;100815.31;4998748;28;20030;-67
2023/10/14 06:11:12;;;;;;;13.15;2.25;;;;;;;9.88;100.00;100821.31;5024059;28;20072;-67
2023/10/14 06:13:37;;;;;;;11.30;2.28;;;;;;;9.89;100.00;100822.19;5024061;28;20025;-67
2023/10/14 06:16:11;;;;;;;13.55;2.70;;;;;;;9.90;100.00;100829.13;5019155;28;20036;-67
2023/10/14 06:18:40;;;;;;;9.93;2.30;;;;;;;9.92;100.00;100836.13;5018785;28;20551;-67
2023/10/14 06:21:08;;;;;;;11.25;2.58;;;;;;;9.96;100.00;100842.28;4999135;28;20026;-67
2023/10/14 06:23:33;;;;;;;5.28;1.88;;;;;;;9.99;100.00;100847.56;5000040;28;20485;-67
2023/10/14 06:25:59;;;;;;;10.77;2.10;;;;;;;9.99;100.00;100850.16;5006191;28;20054;-66
2023/10/14 06:28:25;;;;;;;14.85;2.63;;;;;;;10.00;100.00;100854.50;5005865;28;20501;-67
2023/10/14 06:30:51;;;;;;;5.00;1.90;;;;;;;10.02;100.00;100857.16;5003504;28;20087;-67
2023/10/14 06:33:16;;;;;;;7.07;2.22;;;;;;;10.01;100.00;100861.44;5004048;28;20421;-67
2023/10/14 06:35:46;;;;;;;10.43;2.38;;;;;;;10.03;100.00;100870.16;5005202;28;20494;-66
2023/10/14 06:38:17;;;;;;;12.85;2.85;;;;;;;10.06;100.00;100878.03;5005030;28;20289;-67
2023/10/14 06:40:44;;;;;;;9.20;2.03;;;;;;;10.11;100.00;100874.72;5004265;28;20048;-67
2023/10/14 06:43:09;;;;;;;12.98;2.00;;;;;;;10.14;100.00;100880.88;5004106;28;20076;-66
2023/10/14 06:45:36;;;;;;;7.30;2.03;;;;;;;10.13;100.00;100893.78;5005370;28;20478;-67
2023/10/14 06:48:09;;;;;;;7.05;2.42;;;;;;;10.16;100.00;100905.13;4996448;28;20067;-66
2023/10/14 06:50:37;;;;;;;8.57;1.58;;;;;;;10.17;100.00;100900.81;5017595;28;20052;-68
2023/10/14 06:53:07;;;;;;;10.68;2.05;;;;;;;10.17;100.00;100903.41;5024487;28;20108;-67
2023/10/14 06:55:39;;;;;;;7.60;2.00;;;;;;;10.18;100.00;100918.13;5023903;28;20359;-67
2023/10/14 06:58:08;;;;;;;6.88;1.90;;;;;;;10.16;100.00;100915.50;5018882;28;20034;-67
2023/10/14 07:00:37;;;;;;;7.93;1.77;;;;;;;10.17;100.00;100921.53;4999447;28;20030;-67
2023/10/14 07:03:07;;;;;;;11.00;2.13;;;;;;;10.16;100.00;100924.97;4987870;28;20030;-67
2023/10/14 07:05:43;;;;;;;8.15;1.38;;;;;;;10.17;100.00;100940.53;4987012;28;20088;-66
2023/10/14 07:08:11;;;;;;;10.32;1.80;;;;;;;10.14;100.00;100940.44;4988678;28;20430;-67
2023/10/14 07:10:37;;;;;;;15.85;2.08;;;;;;;10.13;100.00;100945.56;4987052;28;20030;-67
2023/10/14 07:13:03;;;;;;;6.35;2.13;;;;;;;10.12;100.00;100943.78;4987643;28;20372;-67
2023/10/14 07:15:32;;;;;;;11.10;2.30;;;;;;;10.15;100.00;100944.78;4987797;28;20440;-68
2023/10/14 07:17:59;;;;;;;6.07;1.52;;;;;;;10.14;100.00;100949.91;5005297;28;20580;-67
2023/10/14 07:20:29;;;;;;;13.50;2.10;;;;;;;10.09;100.00;100955.81;5018764;28;20031;-66
2023/10/14 07:22:56;;;;;;;9.88;1.90;;;;;;;10.15;100.00;100960.31;5003753;28;20030;-67
2023/10/14 07:25:23;;;;;;;8.45;1.90;;;;;;;10.16;100.00;100961.22;5004719;28;20026;-65
2023/10/14 07:27:51;;;;;;;10.90;2.25;;;;;;;10.19;100.00;100964.78;4996012;28;20034;-67
2023/10/14 07:30:18;;;;;;;10.75;2.00;;;;;;;10.19;100.00;100969.09;4999699;28;20025;-65
2023/10/14 07:32:47;;;;;;;11.15;2.00;;;;;;;10.20;100.00;100971.72;5004715;28;20351;-67
2023/10/14 07:35:15;;;;;;;7.45;1.90;;;;;;;10.22;100.00;100976.94;5000645;28;20026;-68
2023/10/14 07:37:43;;;;;;;11.43;2.00;;;;;;;10.24;100.00;100983.06;4997204;28;20137;-67
2023/10/14 07:40:11;;;;;;;14.77;2.58;;;;;;;10.29;100.00;100985.84;5005116;28;20022;-66
2023/10/14 07:42:40;;;;;;;7.65;1.55;;;;;;;10.33;100.00;100995.47;5004443;28;20541;-67
2023/10/14 07:45:10;;;;;;;9.55;2.10;;;;;;;10.36;100.00;100992.97;5005351;28;20474;-67
2023/10/14 07:47:37;;;;;;;7.63;2.10;;;;;;;10.42;100.00;101002.69;5007989;28;20030;-67
2023/10/14 07:50:09;;;;;;;8.45;1.80;;;;;;;10.44;100.00;101006.22;5008384;28;20034;-67
2023/10/14 07:52:35;;;;;;;8.48;2.03;;;;;;;10.51;100.00;101005.63;4995473;28;20030;-67
2023/10/14 07:55:02;;;;;;;10.32;2.00;;;;;;;10.57;100.00;101013.63;4995745;28;20118;-67
2023/10/14 07:57:27;;;;;;;9.52;2.17;;;;;;;10.63;100.00;101014.69;5002017;28;20117;-66
2023/10/14 07:59:57;;;;;;;8.40;2.20;;;;;;;10.71;100.00;101015.81;5001716;28;20026;-67
2023/10/14 08:02:25;;;;;;;11.30;2.35;;;;;;;10.78;100.00;101014.31;5008074;28;20046;-66
2023/10/14 08:04:53;;;;;;;10.48;2.20;;;;;;;10.83;100.00;101025.72;5004043;28;20032;-67
2023/10/14 08:07:18;;;;;;;7.75;1.92;;;;;;;10.96;100.00;101021.81;5008871;28;20112;-67
2023/10/14 08:09:44;;;;;;;9.50;1.67;;;;;;;11.12;100.00;101025.81;5012132;28;20122;-68
2023/10/14 08:12:09;;;;;;;14.55;2.55;;;;;;;11.37;100.00;101036.13;5006793;28;20091;-67
2023/10/14 08:14:34;;;;;;;11.38;2.00;;;;;;;11.70;100.00;101037.97;5008794;28;20018;-67
2023/10/14 08:16:59;;;;;;;9.38;2.17;;;;;;;12.02;100.00;101039.78;5023268;28;20129;-65
2023/10/14 08:19:26;;;;;;;10.02;2.00;;;;;;;12.36;100.00;101042.47;5010224;28;20072;-67
2023/10/14 08:21:52;;;;;;;8.30;2.00;;;;;;;12.52;100.00;101053.31;5020972;28;20056;-67
2023/10/14 08:24:18;;;;;;;10.55;2.03;;;;;;;12.64;100.00;101057.97;5016218;28;20026;-67
2023/10/14 08:26:46;;;;;;;6.13;1.80;;;;;;;12.70;100.00;101065.94;5015282;28;20384;-67
2023/10/14 08:29:12;;;;;;;5.95;1.70;;;;;;;12.77;100.00;101066.97;5013005;28;20532;-67
2023/10/14 08:31:38;;;;;;;8.23;2.13;;;;;;;12.86;100.00;101069.84;5012145;28;20022;-67
2023/10/14 08:34:07;;;;;;;9.93;2.25;;;;;;;12.88;100.00;101065.53;5009865;28;20021;-68
2023/10/14 08:36:32;;;;;;;9.55;2.65;;;;;;;12.89;100.00;101069.91;5009604;28;20041;-67
2023/10/14 08:38:58;;;;;;;8.20;2.45;;;;;;;13.04;100.00;101073.75;5010395;28;20030;-67
2023/10/14 08:41:25;;;;;;;11.52;2.58;;;;;;;13.19;100.00;101079.31;5009452;28;20265;-67
2023/10/14 08:43:56;;;;;;;11.80;2.20;;;;;;;13.54;100.00;101090.59;5019071;28;20021;-67
2023/10/14 08:46:23;;;;;;;9.45;2.47;;;;;;;13.86;100.00;101097.38;5026893;28;20032;-67
2023/10/14 08:48:51;;;;;;;8.50;1.98;;;;;;;14.16;100.00;101091.97;5014276;28;20555;-67
2023/10/14 08:51:18;;;;;;;7.75;1.73;;;;;;;14.35;100.00;101102.78;5009950;28;20033;-67
2023/10/14 08:53:46;;;;;;;5.30;2.22;;;;;;;14.65;100.00;101108.56;5012722;28;20038;-67
2023/10/14 08:56:12;;;;;;;9.77;1.98;;;;;;;14.78;100.00;101109.69;5010184;28;20025;-67
2023/10/14 08:58:38;;;;;;;6.68;2.33;;;;;;;14.92;100.00;101109.97;5012289;28;20029;-68
2023/10/14 09:01:11;;;;;;;7.18;1.75;;;;;;;14.96;100.00;101110.91;5016290;28;20055;-67
2023/10/14 09:03:38;;;;;;;8.68;2.83;;;;;;;14.93;100.00;101121.28;5023462;28;20037;-67
2023/10/14 09:06:06;;;;;;;11.98;2.65;;;;;;;14.72;100.00;101123.50;5019749;28;20470;-67
2023/10/14 09:08:35;;;;;;;8.85;1.83;;;;;;;14.41;100.00;101117.66;5026468;28;20026;-67
2023/10/14 09:11:00;;;;;;;8.68;2.13;;;;;;;14.24;100.00;101138.16;5027946;28;20037;-67
2023/10/14 09:13:26;;;;;;;9.65;2.35;;;;;;;14.11;100.00;101130.06;5020913;28;20493;-67
2023/10/14 09:15:51;;;;;;;7.78;2.15;;;;;;;14.04;100.00;101128.19;5021533;28;20545;-67
2023/10/14 09:18:22;;;;;;;8.27;1.95;;;;;;;13.92;100.00;101129.66;5009783;28;20030;-67
2023/10/14 09:20:58;;;;;;;9.88;1.70;;;;;;;13.88;100.00;101133.06;5009417;28;20022;-67
2023/10/14 09:23:39;;;;;;;6.07;1.58;;;;;;;13.79;100.00;101127.63;5009474;28;20036;-67
2023/10/14 09:26:05;;;;;;;;;;;;;;;13.75;100.00;101134.47;4998696;28;20049;-67
2023/10/14 09:28:35;;;;;;;9.70;1.73;;;;;;;13.64;100.00;101135.94;5008964;28;20370;-67
2023/10/14 09:31:07;;;;;;;7.73;1.73;;;;;;;13.57;100.00;101137.53;5008257;28;20055;-68
2023/10/14 09:33:35;;;;;;;10.50;2.10;;;;;;;13.54;100.00;101138.34;5013777;28;20279;-68
2023/10/14 09:36:04;;;;;;;7.03;2.33;;;;;;;13.45;100.00;101138.06;5008407;28;20425;-67
2023/10/14 09:38:34;;;;;;;9.38;2.38;;;;;;;13.38;100.00;101137.06;5018390;28;20075;-67
2023/10/14 09:41:05;;;;;;;13.48;2.13;;;;;;;13.33;100.00;101138.63;5001085;28;20045;-67
2023/10/14 09:43:32;;;;;;;9.80;2.17;;;;;;;13.28;100.00;101137.63;5008769;28;20021;-67
2023/10/14 09:45:59;;;;;;;10.98;1.90;;;;;;;13.29;100.00;101136.81;5017252;28;20040;-67
2023/10/14 09:48:29;;;;;;;7.65;1.60;;;;;;;13.28;100.00;101140.25;5009251;28;20030;-67
2023/10/14 09:50:56;;;;;;;6.43;1.52;;;;;;;13.24;100.00;101146.22;5019404;28;20022;-66
2023/10/14 09:53:28;;;;;;;13.25;2.53;;;;;;;13.24;100.00;101148.81;5017739;28;20080;-67
2023/10/14 09:56:04;;;;;;;8.20;1.77;;;;;;;13.20;100.00;101146.13;5005511;28;20026;-68
2023/10/14 09:58:30;;;;;;;9.63;1.98;;;;;;;13.21;100.00;101150.50;5006580;28;20037;-67
2023/10/14 10:00:59;;;;;;;8.77;2.15;;;;;;;13.19;100.00;101156.50;5008675;28;20101;-67
2023/10/14 10:03:25;;;;;;;6.20;1.52;;;;;;;13.11;100.00;101148.50;5008671;28;20030;-67
2023/10/14 10:06:05;;;;;;;7.38;1.90;;;;;;;13.06;100.00;101153.56;5007866;28;20502;-67
2023/10/14 10:08:43;;;;;;;7.88;1.83;;;;;;;13.06;100.00;101150.13;5008285;28;20026;-67
2023/10/14 10:11:10;;;;;;;11.02;1.70;;;;;;;13.01;100.00;101159.47;5013097;28;20040;-66
2023/10/14 10:13:38;;;;;;;9.13;1.80;;;;;;;12.99;100.00;101158.59;5008510;28;20505;-67
2023/10/14 10:16:04;;;;;;;9.63;1.73;;;;;;;12.97;100.00;101161.13;5007675;28;20053;-68
2023/10/14 10:18:50;;;;;;;7.68;1.90;;;;;;;13.02;100.00;101169.06;5008159;28;20026;-67
2023/10/14 10:21:18;;;;;;;8.77;1.80;;;;;;;13.04;100.00;101167.41;5007377;28;20025;-67
2023/10/14 10:23:43;;;;;;;11.35;2.13;;;;;;;13.07;100.00;101170.06;5008122;28;20018;-66
2023/10/14 10:26:09;;;;;;;5.25;1.48;;;;;;;13.11;100.00;101164.13;5014170;28;20036;-66
2023/10/14 10:28:37;;;;;;;7.80;2.00;;;;;;;13.11;100.00;101171.94;5012752;28;20393;-66
2023/10/14 10:31:10;;;;;;;10.05;1.75;;;;;;;13.13;98.98;101177.16;5006723;28;20076;-67
2023/10/14 10:33:55;;;;;;;7.05;1.67;;;;;;;13.16;98.45;101172.03;5016829;28;20036;-67
2023/10/14 10:36:27;;;;;;;6.68;1.50;;;;;;;13.16;93.89;101180.72;5007413;28;20056;-66
2023/10/14 10:38:54;;;;;;;9.25;1.83;;;;;;;13.22;97.15;101185.22;5010074;28;20029;-67
2023/10/14 10:41:24;;;;;;;6.20;1.52;;;;;;;13.27;98.34;101191.44;5013394;28;20477;-66
2023/10/14 10:43:51;;;;;;;9.35;2.20;;;;;;;13.30;95.45;101185.41;5014374;28;20513;-66
2023/10/14 10:46:42;;;;;;;8.52;1.92;;;;;;;13.33;93.08;101186.38;5008577;28;20101;-67
2023/10/14 10:49:10;;;;;;;7.88;1.63;;;;;;;13.36;91.68;101192.50;5004582;28;20037;-66
2023/10/14 10:51:36;;;;;;;7.28;1.90;;;;;;;13.44;92.58;101191.84;5020246;28;20025;-66
2023/10/14 10:54:02;;;;;;;6.07;1.80;;;;;;;13.48;91.77;101190.22;5015703;28;20018;-66
2023/10/14 10:56:33;;;;;;;7.93;1.30;;;;;;;13.54;94.82;101202.53;5007995;28;20417;-67
2023/10/14 10:59:01;;;;;;;7.97;1.90;;;;;;;13.52;88.65;101201.59;5023615;28;20435;-67
2023/10/14 11:01:31;;;;;;;7.57;1.85;;;;;;;13.56;92.72;101211.28;5025758;28;20052;-66
2023/10/14 11:04:12;;;;;;;6.70;1.40;;;;;;;13.66;89.78;101209.78;5025526;28;20079;-66
2023/10/14 11:06:38;;;;;;;4.93;1.35;;;;;;;13.81;88.39;101209.28;5009245;28;20029;-66
2023/10/14 11:09:04;;;;;;;9.50;2.58;;;;;;;14.02;90.28;101213.25;5016348;28;20079;-67
2023/10/14 11:11:31;;;;;;;5.28;1.67;;;;;;;14.22;90.12;101220.66;5024707;28;20451;-66
2023/10/14 11:13:57;;;;;;;6.13;1.80;;;;;;;14.38;89.51;101222.75;5027152;28;20386;-67
2023/10/14 11:16:22;;;;;;;7.20;1.48;;;;;;;14.55;86.14;101219.66;5026853;28;20252;-66
2023/10/14 11:18:48;;;;;;;4.68;1.40;;;;;;;14.71;86.79;101206.94;5012887;28;20393;-67
2023/10/14 11:21:16;;;;;;;4.72;1.40;;;;;;;14.89;87.59;101204.72;5011080;28;20381;-67
2023/10/14 11:23:42;;;;;;;5.35;1.83;;;;;;;15.11;86.77;101212.09;5010848;28;20895;-67
2023/10/14 11:26:12;;;;;;;5.63;1.73;;;;;;;15.28;81.19;101208.91;5015469;28;20474;-67
2023/10/14 11:28:39;;;;;;;7.35;1.35;;;;;;;15.47;82.45;101204.91;5022196;28;20038;-67
2023/10/14 11:31:07;;;;;;;8.73;1.67;;;;;;;15.61;78.68;101210.38;5017435;28;20044;-66
2023/10/14 11:33:35;;;;;;;5.57;1.63;;;;;;;15.79;80.69;101225.47;5022440;28;20066;-65
2023/10/14 11:36:02;;;;;;;5.93;1.50;;;;;;;15.93;78.11;101217.84;5009510;28;20028;-67
2023/10/14 11:38:30;;;;;;;5.20;1.42;;;;;;;15.99;76.32;101221.41;5013874;28;20469;-67
2023/10/14 11:40:58;;;;;;;5.57;1.60;;;;;;;16.18;78.48;101217.38;5012770;28;20045;-67
2023/10/14 11:43:23;;;;;;;7.95;1.60;;;;;;;16.29;79.55;101213.19;5011116;28;20505;-67
2023/10/14 11:45:51;;;;;;;7.45;1.90;;;;;;;16.42;79.69;101218.59;5010656;28;20089;-67
2023/10/14 11:48:34;;;;;;;17.55;2.55;;;;;;;16.53;79.28;101229.19;5019415;28;20731;-67